createdAt,value
2023-06-06T00:00:20.087Z,4.22
2023-06-06T00:02:52.593Z,5.20
2023-06-06T00:05:27.665Z,4.82
2023-06-06T00:08:00.240Z,4.90
2023-06-06T00:10:32.768Z,4.15
2023-06-06T00:13:05.083Z,4.03
2023-06-06T00:15:39.473Z,4.00
2023-06-06T00:18:12.351Z,4.45
2023-06-06T00:20:45.252Z,4.18
2023-06-06T00:23:17.967Z,4.78
2023-06-06T00:25:51.417Z,6.32
2023-06-06T00:28:23.761Z,4.78
2023-06-06T00:30:58.084Z,3.65
2023-06-06T00:33:30.437Z,4.15
2023-06-06T00:36:03.169Z,3.75
2023-06-06T00:38:35.831Z,3.65
2023-06-06T00:41:08.378Z,4.13
2023-06-06T00:43:41.119Z,3.80
2023-06-06T00:46:16.669Z,5.07
2023-06-06T00:48:49.854Z,4.25
2023-06-06T00:51:22.516Z,4.13
2023-06-06T00:53:58.177Z,3.65
2023-06-06T00:56:31.096Z,3.78
2023-06-06T00:59:04.535Z,4.78
2023-06-06T01:01:39.609Z,4.68
2023-06-06T01:04:13.006Z,3.85
2023-06-06T01:06:46.909Z,4.30
2023-06-06T01:09:21.940Z,4.05
2023-06-06T01:12:04.139Z,4.45
2023-06-06T01:14:45.387Z,3.80
2023-06-06T01:17:19.810Z,4.43
2023-06-06T01:19:52.936Z,4.07
2023-06-06T01:22:27.828Z,4.35
2023-06-06T01:25:00.285Z,4.00
2023-06-06T01:27:33.894Z,3.20
2023-06-06T01:30:08.324Z,4.30
2023-06-06T01:32:49.425Z,3.58
2023-06-06T01:35:29.231Z,4.18
2023-06-06T01:38:09.101Z,4.28
2023-06-06T01:40:43.421Z,3.85
2023-06-06T01:43:17.259Z,3.83
2023-06-06T01:45:51.630Z,4.30
2023-06-06T01:48:25.598Z,4.40
2023-06-06T01:50:57.992Z,3.97
2023-06-06T01:53:30.997Z,3.78
2023-06-06T01:56:03.454Z,3.95
2023-06-06T01:58:36.112Z,3.40
2023-06-06T02:01:09.210Z,3.72
2023-06-06T02:03:41.923Z,3.53
2023-06-06T02:06:14.379Z,3.65
2023-06-06T02:08:48.125Z,4.32
2023-06-06T02:11:23.465Z,4.38
2023-06-06T02:13:57.553Z,4.82
2023-06-06T02:16:30.264Z,4.25
2023-06-06T02:19:02.882Z,3.80
2023-06-06T02:21:35.759Z,4.00
2023-06-06T02:24:08.995Z,3.75
2023-06-06T02:26:42.893Z,3.63
2023-06-06T02:29:15.841Z,3.85
2023-06-06T02:31:48.663Z,4.60
2023-06-06T02:34:22.096Z,3.50
2023-06-06T02:36:54.554Z,2.65
2023-06-06T02:39:27.537Z,2.63
2023-06-06T02:42:00.080Z,2.97
2023-06-06T02:44:33.188Z,1.70
2023-06-06T02:47:06.276Z,2.78
2023-06-06T02:49:38.648Z,1.75
2023-06-06T02:52:11.775Z,1.30
2023-06-06T02:54:44.818Z,1.55
2023-06-06T02:57:17.311Z,2.85
2023-06-06T02:59:49.694Z,2.25
2023-06-06T03:02:22.083Z,2.08
2023-06-06T03:04:56.602Z,1.75
2023-06-06T03:07:28.959Z,1.00
2023-06-06T03:10:01.937Z,1.42
2023-06-06T03:12:40.612Z,1.27
2023-06-06T03:15:12.962Z,1.75
2023-06-06T03:17:49.463Z,2.35
2023-06-06T03:20:22.823Z,1.75
2023-06-06T03:23:19.023Z,2.00
2023-06-06T03:25:52.193Z,1.83
2023-06-06T03:28:24.740Z,1.70
2023-06-06T03:30:59.248Z,2.25
2023-06-06T03:33:33.234Z,2.60
2023-06-06T03:36:07.985Z,2.03
2023-06-06T03:38:40.675Z,2.17
2023-06-06T03:41:14.675Z,1.98
2023-06-06T03:43:47.543Z,1.20
2023-06-06T03:46:21.109Z,1.83
2023-06-06T03:48:53.842Z,1.63
2023-06-06T03:51:26.179Z,1.75
2023-06-06T03:53:58.503Z,1.45
2023-06-06T03:56:32.706Z,1.30
2023-06-06T03:59:06.360Z,1.45
2023-06-06T04:01:38.710Z,1.05
2023-06-06T04:04:14.193Z,1.23
2023-06-06T04:06:46.520Z,1.45
2023-06-06T04:09:18.866Z,1.55
2023-06-06T04:11:51.924Z,1.63
2023-06-06T04:14:24.684Z,1.30
2023-06-06T04:16:57.327Z,2.47
2023-06-06T04:19:30.849Z,1.80
2023-06-06T04:22:05.517Z,1.83
2023-06-06T04:24:37.828Z,2.22
2023-06-06T04:27:11.089Z,1.80
2023-06-06T04:29:45.350Z,2.00
2023-06-06T04:32:19.911Z,2.03
2023-06-06T04:34:57.839Z,1.58
2023-06-06T04:37:32.617Z,1.42
2023-06-06T04:40:07.738Z,1.40
2023-06-06T04:42:41.271Z,1.33
2023-06-06T04:45:13.705Z,0.95
2023-06-06T04:47:46.093Z,1.17
2023-06-06T04:50:20.382Z,1.00
2023-06-06T04:52:53.175Z,1.10
2023-06-06T04:55:27.974Z,1.50
2023-06-06T04:58:03.341Z,1.08
2023-06-06T05:00:36.175Z,0.90
2023-06-06T05:03:08.593Z,1.00
2023-06-06T05:05:40.982Z,1.38
2023-06-06T05:08:13.347Z,1.00
2023-06-06T05:10:45.714Z,1.10
2023-06-06T05:13:18.752Z,0.95
2023-06-06T05:15:51.123Z,0.60
2023-06-06T05:18:24.621Z,1.45
2023-06-06T05:21:00.851Z,1.35
2023-06-06T05:23:33.341Z,1.10
2023-06-06T05:26:05.833Z,1.38
2023-06-06T05:28:39.701Z,1.10
2023-06-06T05:31:17.137Z,1.00
2023-06-06T05:33:49.544Z,0.77
2023-06-06T05:36:22.116Z,1.15
2023-06-06T05:38:54.968Z,1.27
2023-06-06T05:41:27.426Z,1.00
2023-06-06T05:44:00.453Z,1.15
2023-06-06T05:46:33.928Z,1.10
2023-06-06T05:49:06.282Z,1.30
2023-06-06T05:51:38.686Z,1.15
2023-06-06T05:54:17.369Z,1.33
2023-06-06T05:56:50.815Z,1.35
2023-06-06T05:59:23.897Z,1.67
2023-06-06T06:01:56.278Z,1.15
2023-06-06T06:04:30.583Z,2.70
2023-06-06T06:07:03.595Z,1.38
2023-06-06T06:09:35.997Z,1.65
2023-06-06T06:12:09.069Z,1.65
2023-06-06T06:14:42.096Z,1.83
2023-06-06T06:17:14.597Z,2.13
2023-06-06T06:19:46.980Z,1.73
2023-06-06T06:22:19.340Z,1.50
2023-06-06T06:24:52.077Z,1.50
2023-06-06T06:27:24.975Z,1.35
2023-06-06T06:29:58.103Z,1.00
2023-06-06T06:32:30.592Z,1.33
2023-06-06T06:35:04.435Z,1.40
2023-06-06T06:37:37.816Z,1.10
2023-06-06T06:40:11.108Z,2.30
2023-06-06T06:42:44.547Z,1.27
2023-06-06T06:45:35.335Z,1.73
2023-06-06T06:48:07.739Z,1.10
2023-06-06T06:50:40.765Z,1.00
2023-06-06T06:53:14.160Z,1.10
2023-06-06T06:55:46.505Z,1.60
2023-06-06T06:58:25.582Z,1.52
2023-06-06T07:00:58.959Z,1.17
2023-06-06T07:03:34.554Z,1.05
2023-06-06T07:06:08.283Z,1.20
2023-06-06T07:08:42.025Z,1.08
2023-06-06T07:11:14.407Z,0.82
2023-06-06T07:13:46.735Z,0.95
2023-06-06T07:16:20.667Z,1.80
2023-06-06T07:18:53.645Z,1.40
2023-06-06T07:21:26.258Z,1.08
2023-06-06T07:23:58.756Z,0.95
2023-06-06T07:26:31.164Z,1.33
2023-06-06T07:29:04.024Z,1.40
2023-06-06T07:31:38.346Z,2.50
2023-06-06T07:34:10.868Z,0.70
2023-06-06T07:37:02.685Z,1.23
2023-06-06T07:39:35.011Z,1.50
2023-06-06T07:42:07.839Z,1.08
2023-06-06T07:44:40.254Z,1.17
2023-06-06T07:47:31.908Z,1.15
2023-06-06T07:50:18.284Z,1.30
2023-06-06T07:52:50.620Z,1.20
2023-06-06T07:55:25.234Z,1.33
2023-06-06T07:57:57.713Z,1.27
2023-06-06T08:00:49.983Z,1.17
2023-06-06T08:03:23.021Z,1.20
2023-06-06T08:05:55.494Z,1.35
2023-06-06T08:08:27.864Z,1.00
2023-06-06T08:11:00.151Z,0.85
2023-06-06T08:13:32.946Z,1.30
2023-06-06T08:16:05.851Z,1.42
2023-06-06T08:18:39.479Z,1.35
2023-06-06T08:21:12.694Z,1.13
2023-06-06T08:23:45.399Z,1.30
2023-06-06T08:26:17.812Z,1.50
2023-06-06T08:28:53.146Z,1.10
2023-06-06T08:31:25.649Z,1.80
2023-06-06T08:33:58.693Z,1.70
2023-06-06T08:36:31.039Z,1.88
2023-06-06T08:39:06.695Z,1.90
2023-06-06T08:41:43.325Z,2.13
2023-06-06T08:44:15.733Z,2.33
2023-06-06T08:46:51.432Z,2.00
2023-06-06T08:49:27.415Z,2.35
2023-06-06T08:52:01.684Z,1.70
2023-06-06T08:54:34.775Z,2.00
2023-06-06T08:57:08.410Z,2.10
2023-06-06T08:59:41.943Z,2.00
2023-06-06T09:02:14.408Z,1.85
2023-06-06T09:04:48.744Z,2.13
2023-06-06T09:07:21.178Z,1.63
2023-06-06T09:09:54.001Z,2.10
2023-06-06T09:12:26.351Z,2.10
2023-06-06T09:14:58.674Z,2.17
2023-06-06T09:17:35.945Z,1.80
2023-06-06T09:20:11.434Z,1.98
2023-06-06T09:22:46.143Z,1.70
2023-06-06T09:25:19.762Z,1.67
2023-06-06T09:27:58.836Z,1.80
2023-06-06T09:30:32.449Z,2.03
2023-06-06T09:33:05.480Z,1.35
2023-06-06T09:35:43.844Z,1.98
2023-06-06T09:38:17.716Z,1.45
2023-06-06T09:40:51.762Z,1.77
2023-06-06T09:43:25.264Z,1.65
2023-06-06T09:45:59.227Z,1.70
2023-06-06T09:48:31.743Z,1.58
2023-06-06T09:51:06.336Z,1.95
2023-06-06T09:53:41.013Z,1.63
2023-06-06T09:56:14.232Z,1.77
2023-06-06T09:58:51.607Z,1.80
2023-06-06T10:01:28.603Z,2.38
2023-06-06T10:04:01.911Z,1.58
2023-06-06T10:06:35.634Z,4.55
2023-06-06T10:09:08.303Z,2.40
2023-06-06T10:11:41.049Z,2.13
2023-06-06T10:14:15.397Z,2.00
2023-06-06T10:16:48.822Z,1.90
2023-06-06T10:19:26.060Z,1.83
2023-06-06T10:22:01.368Z,1.90
2023-06-06T10:24:36.235Z,2.38
2023-06-06T10:27:18.659Z,1.95
2023-06-06T10:29:59.661Z,1.92
2023-06-06T10:32:45.238Z,2.00
2023-06-06T10:35:19.833Z,2.10
2023-06-06T10:38:03.182Z,1.88
2023-06-06T10:40:43.478Z,1.75
2023-06-06T10:43:33.642Z,1.70
2023-06-06T10:46:06.231Z,1.65
2023-06-06T10:48:39.202Z,1.85
2023-06-06T10:51:29.187Z,2.00
2023-06-06T10:54:16.147Z,1.73
2023-06-06T10:56:51.674Z,2.17
2023-06-06T10:59:28.558Z,1.48
2023-06-06T11:02:01.496Z,1.80
2023-06-06T11:04:39.172Z,1.80
2023-06-06T11:07:16.921Z,2.10
2023-06-06T11:09:51.090Z,1.80
2023-06-06T11:12:25.038Z,1.98
2023-06-06T11:14:58.409Z,2.60
2023-06-06T11:17:43.823Z,1.73
2023-06-06T11:20:19.878Z,1.85
2023-06-06T11:22:59.873Z,1.90
2023-06-06T11:25:35.904Z,2.22
2023-06-06T11:28:09.376Z,1.90
2023-06-06T11:30:41.805Z,1.98
2023-06-06T11:33:14.872Z,1.85
2023-06-06T11:35:47.372Z,1.90
2023-06-06T11:38:19.942Z,3.10
2023-06-06T11:40:52.960Z,1.88
2023-06-06T11:43:25.642Z,1.55
2023-06-06T11:46:04.313Z,1.88
2023-06-06T11:48:37.790Z,2.00
2023-06-06T11:51:11.559Z,1.95
2023-06-06T11:53:44.103Z,2.17
2023-06-06T11:56:17.564Z,1.65
2023-06-06T11:58:49.902Z,2.00
2023-06-06T12:01:22.338Z,1.75
2023-06-06T12:03:54.956Z,1.83
2023-06-06T12:06:29.125Z,1.83
2023-06-06T12:09:03.711Z,1.92
2023-06-06T12:11:36.722Z,1.38
2023-06-06T12:14:11.599Z,1.38
2023-06-06T12:16:44.016Z,1.98
2023-06-06T12:19:17.253Z,1.63
2023-06-06T12:21:51.403Z,1.63
2023-06-06T12:24:25.237Z,1.50
2023-06-06T12:27:01.088Z,1.73
2023-06-06T12:29:36.482Z,1.33
2023-06-06T12:32:16.446Z,1.92
2023-06-06T12:34:50.164Z,1.75
2023-06-06T12:37:25.287Z,1.75
2023-06-06T12:39:57.630Z,1.50
2023-06-06T12:42:30.702Z,1.30
2023-06-06T12:45:03.543Z,1.77
2023-06-06T12:47:36.262Z,1.55
2023-06-06T12:50:11.222Z,2.15
2023-06-06T12:52:44.025Z,1.42
2023-06-06T12:55:17.613Z,1.75
2023-06-06T12:57:51.365Z,1.77
2023-06-06T13:00:23.746Z,2.00
2023-06-06T13:02:56.419Z,1.83
2023-06-06T13:05:28.825Z,2.10
2023-06-06T13:08:01.431Z,1.77
2023-06-06T13:10:34.925Z,1.90
2023-06-06T13:13:07.996Z,1.80
2023-06-06T13:15:40.801Z,1.92
2023-06-06T13:18:13.845Z,1.75
2023-06-06T13:20:46.524Z,3.00
2023-06-06T13:23:19.020Z,1.70
2023-06-06T13:25:51.753Z,1.35
2023-06-06T13:28:25.045Z,1.77
2023-06-06T13:30:57.593Z,2.33
2023-06-06T13:33:30.325Z,1.55
2023-06-06T13:36:03.193Z,1.52
2023-06-06T13:38:35.709Z,2.03
2023-06-06T13:41:08.243Z,1.73
2023-06-06T13:43:41.267Z,1.92
2023-06-06T13:46:14.421Z,1.70
2023-06-06T13:48:49.523Z,1.85
2023-06-06T13:51:21.932Z,1.60
2023-06-06T13:53:54.272Z,1.63
2023-06-06T13:56:27.866Z,1.63
2023-06-06T13:59:01.100Z,1.75
2023-06-06T14:01:33.905Z,1.52
2023-06-06T14:04:06.548Z,1.58
2023-06-06T14:06:39.225Z,2.10
2023-06-06T14:09:14.853Z,1.90
2023-06-06T14:11:47.994Z,1.70
2023-06-06T14:14:20.989Z,2.60
2023-06-06T14:16:53.374Z,1.30
2023-06-06T14:19:35.490Z,1.80
2023-06-06T14:22:21.238Z,2.00
2023-06-06T14:24:54.839Z,2.33
2023-06-06T14:27:29.589Z,1.63
2023-06-06T14:30:05.517Z,1.45
2023-06-06T14:35:10.979Z,1.40
2023-06-06T14:37:43.365Z,1.73
2023-06-06T14:40:16.082Z,1.15
2023-06-06T14:42:54.507Z,1.27
2023-06-06T14:46:03.222Z,1.92
2023-06-06T14:48:49.357Z,2.28
2023-06-06T14:51:21.712Z,1.60
2023-06-06T14:53:54.048Z,2.03
2023-06-06T14:56:27.382Z,1.95
2023-06-06T14:58:59.944Z,1.60
2023-06-06T15:01:35.212Z,1.33
2023-06-06T15:04:07.639Z,1.70
2023-06-06T15:06:40.950Z,2.05
2023-06-06T15:09:13.492Z,1.65
2023-06-06T15:11:48.205Z,1.90
2023-06-06T15:14:20.802Z,1.75
2023-06-06T15:16:54.306Z,1.30
2023-06-06T15:19:26.792Z,1.52
2023-06-06T15:22:01.554Z,1.60
2023-06-06T15:24:34.047Z,1.92
2023-06-06T15:27:06.789Z,1.92
2023-06-06T15:29:42.902Z,2.00
2023-06-06T15:32:16.336Z,1.52
2023-06-06T15:34:48.716Z,1.92
2023-06-06T15:37:21.472Z,1.40
2023-06-06T15:39:53.843Z,1.35
2023-06-06T15:42:26.247Z,1.73
2023-06-06T15:44:58.908Z,1.83
2023-06-06T15:47:32.628Z,2.88
2023-06-06T15:50:05.797Z,1.50
2023-06-06T15:52:38.150Z,1.80
2023-06-06T15:55:11.357Z,1.52
2023-06-06T15:57:43.626Z,1.75
2023-06-06T16:00:16.780Z,2.05
2023-06-06T16:02:50.168Z,6.00
2023-06-06T16:05:22.510Z,14.30
2023-06-06T16:07:54.892Z,3.00
2023-06-06T16:10:27.275Z,1.92
2023-06-06T16:12:59.707Z,2.75
2023-06-06T16:15:32.030Z,1.83
2023-06-06T16:18:05.278Z,2.60
2023-06-06T16:20:44.950Z,1.65
2023-06-06T16:23:17.302Z,1.40
2023-06-06T16:25:50.401Z,1.52
2023-06-06T16:28:24.055Z,1.60
2023-06-06T16:30:56.484Z,1.20
2023-06-06T16:33:29.550Z,1.73
2023-06-06T16:36:01.918Z,1.50
2023-06-06T16:38:34.253Z,1.58
2023-06-06T16:41:06.657Z,1.45
2023-06-06T16:43:39.044Z,1.77
2023-06-06T16:46:11.721Z,1.45
2023-06-06T16:48:44.777Z,2.00
2023-06-06T16:51:17.162Z,2.45
2023-06-06T16:53:49.526Z,2.45
2023-06-06T16:56:23.048Z,2.00
2023-06-06T16:58:55.450Z,2.42
2023-06-06T17:01:27.950Z,2.47
2023-06-06T17:04:02.247Z,1.98
2023-06-06T17:06:34.683Z,1.75
2023-06-06T17:09:08.512Z,2.08
2023-06-06T17:11:40.844Z,1.80
2023-06-06T17:14:13.176Z,1.40
2023-06-06T17:16:46.981Z,1.55
2023-06-06T17:19:20.365Z,1.50
2023-06-06T17:21:52.797Z,1.58
2023-06-06T17:24:25.171Z,2.22
2023-06-06T17:26:57.495Z,2.28
2023-06-06T17:29:29.949Z,1.92
2023-06-06T17:32:02.366Z,5.43
2023-06-06T17:34:35.889Z,5.03
2023-06-06T17:37:08.254Z,2.90
2023-06-06T17:39:41.080Z,2.42
2023-06-06T17:42:15.064Z,2.22
2023-06-06T17:44:47.611Z,1.95
2023-06-06T17:47:20.148Z,1.55
2023-06-06T17:49:53.590Z,1.85
2023-06-06T17:52:26.150Z,1.60
2023-06-06T17:54:59.506Z,2.10
2023-06-06T17:57:32.161Z,1.90
2023-06-06T18:00:06.846Z,2.00
2023-06-06T18:02:40.748Z,2.15
2023-06-06T18:05:27.804Z,1.88
2023-06-06T18:08:06.156Z,2.05
2023-06-06T18:10:38.509Z,2.60
2023-06-06T18:13:10.833Z,2.78
2023-06-06T18:15:43.663Z,2.85
2023-06-06T18:18:16.308Z,3.15
2023-06-06T18:20:51.027Z,2.30
2023-06-06T18:23:23.689Z,2.10
2023-06-06T18:25:56.541Z,1.63
2023-06-06T18:28:28.849Z,2.50
2023-06-06T18:31:01.647Z,2.30
2023-06-06T18:33:34.049Z,2.33
2023-06-06T18:36:07.343Z,2.40
2023-06-06T18:38:39.703Z,2.03
2023-06-06T18:41:12.029Z,2.00
2023-06-06T18:43:44.494Z,2.20
2023-06-06T18:46:16.954Z,1.77
2023-06-06T18:48:49.347Z,2.17
2023-06-06T18:51:22.397Z,2.17
2023-06-06T18:53:54.765Z,4.88
2023-06-06T18:56:27.362Z,3.92
2023-06-06T18:59:05.659Z,2.60
2023-06-06T19:01:38.016Z,3.28
2023-06-06T19:04:10.538Z,3.30
2023-06-06T19:06:43.577Z,2.83
2023-06-06T19:09:15.999Z,3.78
2023-06-06T19:11:48.439Z,3.40
2023-06-06T19:14:21.033Z,2.75
2023-06-06T19:16:53.336Z,3.35
2023-06-06T19:19:27.657Z,2.97
2023-06-06T19:22:02.780Z,2.63
2023-06-06T19:24:35.194Z,2.45
2023-06-06T19:27:07.750Z,3.03
2023-06-06T19:29:40.109Z,2.05
2023-06-06T19:32:12.548Z,2.08
2023-06-06T19:34:45.177Z,2.60
2023-06-06T19:37:18.256Z,2.47
2023-06-06T19:39:52.919Z,2.40
2023-06-06T19:42:25.458Z,2.72
2023-06-06T19:44:57.819Z,1.67
2023-06-06T19:47:30.214Z,2.42
2023-06-06T19:50:03.547Z,2.42
2023-06-06T19:52:36.915Z,3.03
2023-06-06T19:55:10.268Z,2.42
2023-06-06T19:57:43.237Z,2.70
2023-06-06T20:00:16.502Z,2.92
2023-06-06T20:02:49.032Z,2.95
2023-06-06T20:05:21.526Z,2.92
2023-06-06T20:07:54.582Z,2.40
2023-06-06T20:10:27.046Z,3.00
2023-06-06T20:12:59.465Z,1.98
2023-06-06T20:15:31.866Z,2.83
2023-06-06T20:18:04.363Z,3.55
2023-06-06T20:20:41.654Z,2.45
2023-06-06T20:23:14.833Z,1.77
2023-06-06T20:26:00.934Z,2.28
2023-06-06T20:28:33.667Z,2.92
2023-06-06T20:31:06.472Z,2.45
2023-06-06T20:33:38.934Z,2.42
2023-06-06T20:36:12.222Z,2.45
2023-06-06T20:38:50.362Z,2.90
2023-06-06T20:41:23.259Z,2.60
2023-06-06T20:43:58.637Z,2.85
2023-06-06T20:46:31.119Z,2.20
2023-06-06T20:49:03.719Z,2.13
2023-06-06T20:51:36.646Z,2.33
2023-06-06T20:54:10.139Z,2.28
2023-06-06T20:56:42.567Z,3.47
2023-06-06T20:59:14.946Z,2.85
2023-06-06T21:01:47.392Z,3.70
2023-06-06T21:04:20.897Z,2.85
2023-06-06T21:06:53.522Z,3.65
2023-06-06T21:09:26.606Z,2.38
2023-06-06T21:11:58.951Z,2.30
2023-06-06T21:14:31.846Z,2.72
2023-06-06T21:17:04.816Z,3.53
2023-06-06T21:19:37.649Z,1.92
2023-06-06T21:22:09.975Z,2.40
2023-06-06T21:24:43.041Z,1.90
2023-06-06T21:27:15.854Z,2.25
2023-06-06T21:29:48.551Z,2.45
2023-06-06T21:32:21.017Z,1.98
2023-06-06T21:34:53.426Z,1.83
2023-06-06T21:37:27.370Z,2.53
2023-06-06T21:40:00.596Z,2.28
2023-06-06T21:42:33.338Z,2.38
2023-06-06T21:45:06.693Z,2.45
2023-06-06T21:47:39.192Z,2.22
2023-06-06T21:50:12.337Z,2.72
2023-06-06T21:52:45.056Z,2.70
2023-06-06T21:55:18.213Z,2.65
2023-06-06T21:57:50.790Z,2.85
2023-06-06T22:00:23.310Z,2.45
2023-06-06T22:02:55.794Z,3.03
2023-06-06T22:05:28.253Z,3.08
2023-06-06T22:08:00.998Z,3.55
2023-06-06T22:10:34.024Z,3.22
2023-06-06T22:13:06.455Z,2.72
2023-06-06T22:15:41.239Z,2.50
2023-06-06T22:18:13.654Z,3.50
2023-06-06T22:20:46.153Z,3.25
2023-06-06T22:23:18.585Z,3.60
2023-06-06T22:26:06.802Z,2.10
2023-06-06T22:28:43.869Z,2.70
2023-06-06T22:31:16.347Z,3.75
2023-06-06T22:33:48.762Z,3.70
2023-06-06T22:36:21.159Z,3.72
2023-06-06T22:38:53.622Z,3.92
2023-06-06T22:41:26.971Z,3.92
2023-06-06T22:44:00.256Z,4.50
2023-06-06T22:46:32.902Z,3.47
2023-06-06T22:49:05.324Z,2.70
2023-06-06T22:51:37.765Z,2.33
2023-06-06T22:54:10.184Z,2.25
2023-06-06T22:56:43.212Z,2.42
2023-06-06T22:59:15.635Z,2.42
2023-06-06T23:01:50.198Z,3.40
2023-06-06T23:04:22.571Z,2.45
2023-06-06T23:06:55.108Z,3.33
2023-06-06T23:09:27.486Z,3.30
2023-06-06T23:12:00.977Z,5.35
2023-06-06T23:14:36.831Z,4.22
2023-06-06T23:17:11.860Z,3.72
2023-06-06T23:19:44.304Z,4.82
2023-06-06T23:22:17.686Z,4.35
2023-06-06T23:24:51.325Z,3.30
2023-06-06T23:27:24.340Z,4.07
2023-06-06T23:29:57.597Z,3.05
2023-06-06T23:32:30.330Z,3.42
2023-06-06T23:35:02.911Z,2.88
2023-06-06T23:37:35.348Z,3.40
2023-06-06T23:40:09.266Z,3.08
2023-06-06T23:42:42.310Z,2.38
2023-06-06T23:45:14.773Z,2.15
2023-06-06T23:47:47.136Z,2.50
2023-06-06T23:50:19.647Z,2.95
2023-06-06T23:52:52.057Z,2.42
2023-06-06T23:55:24.403Z,2.60
2023-06-06T23:57:57.458Z,2.72
